Utah County RPA :: 5DIVIDESUMMIT

liberation: 2021-05-01  07:00     latitude: 45.834950     longitude: -112.684267 85 birds
# LOFT PRING MILES ARRIVAL SPEED ToWin
1 Peery Loft AU19-UCA-0615 402.57 2021-05-01 15:34:42.497 1376.552 00:00:00
2 Peery Loft AU19-UVI-0187 402.57 2021-05-01 15:41:28.634 1358.684 00:06:46
3 Peery Loft AU19-UCA-0910 402.57 2021-05-01 15:49:35.254 1337.876 00:14:53
4 Craig Allred AU19-JEDD-34815 398.579 2021-05-01 15:59:42.815 1299.762 00:30:06
5 Sherwood Loft AU19-AA-30796 406.29 2021-05-01 16:16:57.147 1283.899 00:37:29
6 Sherwood Loft AU20-NEBO-0279 406.29 2021-05-01 16:16:59.890 1283.794 00:37:32
7 Sherwood Loft AU20-NEBO-0285 406.29 2021-05-01 16:17:07.437 1283.504 00:37:40
8 Craig Allred IF20-VDB-0060 398.579 2021-05-01 16:11:31.543 1271.925 00:41:55
9 Sherwood Loft AU20-UCA-0475 406.29 2021-05-01 16:24:04.322 1267.694 00:44:36
10 Craig Allred AU20-UVI-366 398.579 2021-05-01 16:18:44.033 1255.516 00:49:08
11 Craig Allred IF20-VDB-31 398.579 2021-05-01 16:24:18.484 1243.114 00:54:42
12 Sherwood Loft AU19-AA-30785 406.29 2021-05-01 16:37:40.735 1237.834 00:58:13
13 Riley Allred AU20-UCA-116 398.579 2021-05-01 16:33:02.492 1224.168 01:03:26
14 Riley Allred AU20-UCA-127 398.579 2021-05-01 16:33:19.982 1223.546 01:03:44
15 Sherwood Loft IF20-FOYS-2263 406.29 2021-05-01 16:50:57.390 1210.023 01:11:29
16 Sherwood Loft AU20-NEBO-0648 406.29 2021-05-01 16:54:02.568 1203.736 01:14:35
17 Peery Loft AU18-UCA-0522 402.57 2021-05-01 16:49:00.218 1202.917 01:14:18
18 Craig Allred AU20-NLI-2419 398.579 2021-05-01 16:54:00.034 1180.974 01:24:24
19 Riley Allred AU20-UCA-132 398.579 2021-05-01 16:54:13.525 1180.527 01:24:37
20 Craig Allred AU20-UVI-352 398.579 2021-05-01 16:59:57.194 1169.257 01:30:21
21 Riley Allred AU20-UCA-102 398.579 2021-05-01 17:04:19.031 1160.813 01:34:43
22 Sherwood Loft AU19-AA-18420 406.29 2021-05-01 17:17:38.140 1157.755 01:38:10
23 Sherwood Loft AU19-AA-30702 406.29 2021-05-01 17:18:09.151 1156.787 01:38:41
24 Sherwood Loft AU19-UCA-600 406.29 2021-05-01 17:18:12.031 1156.697 01:38:44
25 Sherwood Loft AU20-NEBO-0218 406.29 2021-05-01 17:18:14.790 1156.611 01:38:47
26 Peery Loft AU19-UCA-0943 402.57 2021-05-01 17:17:51.909 1146.727 01:43:09
27 Riley Allred AU20-UCA-139 398.579 2021-05-01 17:12:35.051 1145.148 01:42:59
28 Dry Creek Lofts AU-20-NEBO-323 404.329 2021-05-01 17:25:01.863 1138.533 01:48:04
29 Dry Creek Lofts AU20-NEBO-0334 404.329 2021-05-01 17:25:47.896 1137.137 01:48:50
30 Sherwood Loft AU20-NEBO-0643 406.29 2021-05-01 17:30:13.008 1134.643 01:50:45
31 Dry Creek Lofts AU20-NEBO-301 404.329 2021-05-01 17:50:35.953 1093.790 02:13:38
32 Peery Loft AU19-UCA-0942 402.57 2021-05-01 17:48:17.245 1092.914 02:13:35
33 Sherwood Loft AU19-AA-30783 406.29 2021-05-01 18:05:05.745 1075.140 02:25:38
34 Dry Creek Lofts AU20-NEBO-349 404.329 2021-05-01 18:07:10.281 1066.620 02:30:13
35 Sherwood Loft AU20-E-71180 406.29 2021-05-01 18:13:17.211 1062.060 02:33:49
36 Dry Creek Lofts AU20-NEBO-340 404.329 2021-05-01 18:20:39.835 1045.477 02:43:42
37 Peery Loft AU20-UCA-0019 402.57 2021-05-01 18:22:48.127 1037.669 02:48:06
38 Riley Allred AU20-UCA-166 398.579 2021-05-01 18:20:02.908 1031.543 02:50:27
39 Sherwood Loft AU20-NEBO-0278 406.29 2021-05-01 19:22:55.358 962.510 03:43:27
40 Sherwood Loft AU20-UCA-0413 406.29 2021-05-01 19:33:16.363 949.285 03:53:48
41 Sherwood Loft AU20-UCA-0409 406.29 2021-05-01 19:36:28.316 945.271 03:57:00
42 Sherwood Loft AU18-UCA-0634 406.29 2021-05-01 20:11:59.623 902.874 04:32:32
43 Peery Loft AU16-UCA-0049 402.57 2021-05-01 20:44:00.554 859.848 05:09:18
44 Sherwood Loft IF20-FOYS-2270 406.29 2021-05-02 07:12:43.493 764.053 06:56:26
45 Peery Loft AU19-UVI-0300 402.57 2021-05-02 07:15:27.834 754.847 07:03:55
46 Sherwood Loft AU20-NEBO-0255 406.29 2021-05-02 07:42:07.002 740.789 07:25:49
47 Craig Allred AU20-HARM-1695 398.579 2021-05-02 07:25:05.215 739.780 07:18:39
48 Sherwood Loft AU19-AA-30719 406.29 2021-05-02 07:50:19.187 734.546 07:34:01
49 Peery Loft AU19-UCA-0901 402.57 2021-05-02 07:43:01.215 733.318 07:31:29
50 Peery Loft AU19-UCA-0908 402.57 2021-05-02 07:50:38.840 727.575 07:39:06
51 Sherwood Loft AU20-NEBO-0268 406.29 2021-05-02 08:04:44.636 723.821 07:48:27
52 Sherwood Loft AU18-UCA-0686 406.29 2021-05-02 08:19:55.698 712.865 08:03:38
53 Sherwood Loft AU19-AA-18442 406.29 2021-05-02 08:24:01.573 709.964 08:07:44
54 Peery Loft AU18-UCA-0497 402.57 2021-05-02 08:16:36.275 708.685 08:05:04
55 Craig Allred IF20-VDB-0055 398.579 2021-05-02 08:20:17.463 699.082 08:13:51
56 Sherwood Loft IF20-FOYS-2269 406.29 2021-05-02 08:49:44.618 692.287 08:33:27
57 Sherwood Loft IF20-FOYS-2244 406.29 2021-05-02 09:05:13.098 682.069 08:48:55
58 Craig Allred AU20-HARM-1689 398.579 2021-05-02 09:28:56.099 654.322 09:22:30
59 Riley Allred AU19-UCA-959 398.579 2021-05-02 10:13:48.969 628.031 10:07:23
60 Sherwood Loft AU13-UCA-0368 406.29 2021-05-02 10:36:34.057 627.401 10:20:16
61 Dry Creek Lofts AU20-NEBO-0315 404.329 2021-05-02 11:46:30.975 588.269 11:32:44
62 Craig Allred AU19-JEDD-34849 398.579 2021-05-02 11:34:53.048 585.534 11:28:27
63 Sherwood Loft AU18-UCA-0681 406.29 2021-05-02 12:30:58.746 570.166 12:14:41
Craig Allred AU19-MTZ-1321 0 0000-00-00 00:00:00.000 0.000 00:00:00
Craig Allred AU20-HARM-2617 0 0000-00-00 00:00:00.000 0.000 00:00:00
Craig Allred AU20-NLI-2008 0 0000-00-00 00:00:00.000 0.000 00:00:00
Craig Allred AU20-NLI-2015 0 0000-00-00 00:00:00.000 0.000 00:00:00
Craig Allred AU20-NLI-2413 0 0000-00-00 00:00:00.000 0.000 00:00:00
Craig Allred AU20-NLI-2417 0 0000-00-00 00:00:00.000 0.000 00:00:00
Craig Allred AU20-NLI-2503 0 0000-00-00 00:00:00.000 0.000 00:00:00
Craig Allred AU20-UVI-303 0 0000-00-00 00:00:00.000 0.000 00:00:00
Craig Allred AU20-UVI-359 0 0000-00-00 00:00:00.000 0.000 00:00:00
Craig Allred AU20-UVI-361 0 0000-00-00 00:00:00.000 0.000 00:00:00
Dry Creek Lofts AU20-NEBO-0332 0 0000-00-00 00:00:00.000 0.000 00:00:00
Dry Creek Lofts AU20-NEBO-0357 0 0000-00-00 00:00:00.000 0.000 00:00:00
Dry Creek Lofts AU20-NEBO-311 0 0000-00-00 00:00:00.000 0.000 00:00:00
Peery Loft AU18-UCA-0498 0 0000-00-00 00:00:00.000 0.000 00:00:00
Riley Allred AU19-JEDD-34842 0 0000-00-00 00:00:00.000 0.000 00:00:00
Riley Allred AU19-JEDD-34848 0 0000-00-00 00:00:00.000 0.000 00:00:00
Riley Allred AU19-WFA-1368 0 0000-00-00 00:00:00.000 0.000 00:00:00
Riley Allred AU20-UCA-147 0 0000-00-00 00:00:00.000 0.000 00:00:00
Riley Allred AU20-UCA-156 0 0000-00-00 00:00:00.000 0.000 00:00:00
Riley Allred AU20-UCA-161 0 0000-00-00 00:00:00.000 0.000 00:00:00
Sherwood Loft AU19-JEDD-26356 0 0000-00-00 00:00:00.000 0.000 00:00:00
Sherwood Loft IF20-FOYS-2230 0 0000-00-00 00:00:00.000 0.000 00:00:00